sensor_id;sensor_type;location;lat;lon;timestamp;P1;durP1;ratioP1;P2;durP2;ratioP2
51686;SDS011;37774;52.192;4.584;2023-04-15T00:01:59;13.27;;;4.18;;
51686;SDS011;37774;52.192;4.584;2023-04-15T00:04:46;16.40;;;4.57;;
51686;SDS011;37774;52.192;4.584;2023-04-15T00:07:32;17.63;;;4.53;;
51686;SDS011;37774;52.192;4.584;2023-04-15T00:10:18;11.98;;;4.63;;
51686;SDS011;37774;52.192;4.584;2023-04-15T00:13:03;12.95;;;5.05;;
51686;SDS011;37774;52.192;4.584;2023-04-15T00:15:49;10.52;;;4.97;;
51686;SDS011;37774;52.192;4.584;2023-04-15T00:18:34;7.13;;;4.00;;
51686;SDS011;37774;52.192;4.584;2023-04-15T00:21:22;13.80;;;5.18;;
51686;SDS011;37774;52.192;4.584;2023-04-15T00:24:07;9.18;;;5.15;;
51686;SDS011;37774;52.192;4.584;2023-04-15T00:26:53;7.82;;;4.65;;
51686;SDS011;37774;52.192;4.584;2023-04-15T00:29:38;12.32;;;4.82;;
51686;SDS011;37774;52.192;4.584;2023-04-15T00:32:24;8.48;;;4.70;;
51686;SDS011;37774;52.192;4.584;2023-04-15T00:35:10;7.45;;;4.47;;
51686;SDS011;37774;52.192;4.584;2023-04-15T00:37:56;13.75;;;5.10;;
51686;SDS011;37774;52.192;4.584;2023-04-15T00:40:42;9.90;;;5.20;;
51686;SDS011;37774;52.192;4.584;2023-04-15T00:43:27;10.85;;;4.90;;
51686;SDS011;37774;52.192;4.584;2023-04-15T00:46:13;16.08;;;5.50;;
51686;SDS011;37774;52.192;4.584;2023-04-15T00:49:03;13.13;;;5.65;;
51686;SDS011;37774;52.192;4.584;2023-04-15T00:51:49;11.50;;;4.88;;
51686;SDS011;37774;52.192;4.584;2023-04-15T00:54:36;8.90;;;4.57;;
51686;SDS011;37774;52.192;4.584;2023-04-15T00:57:21;10.52;;;4.20;;
51686;SDS011;37774;52.192;4.584;2023-04-15T01:00:07;20.33;;;4.22;;
51686;SDS011;37774;52.192;4.584;2023-04-15T01:02:54;11.32;;;4.60;;
51686;SDS011;37774;52.192;4.584;2023-04-15T01:05:40;9.02;;;5.40;;
51686;SDS011;37774;52.192;4.584;2023-04-15T01:08:26;9.98;;;5.47;;
51686;SDS011;37774;52.192;4.584;2023-04-15T01:11:13;17.25;;;5.45;;
51686;SDS011;37774;52.192;4.584;2023-04-15T01:13:59;16.00;;;6.25;;
51686;SDS011;37774;52.192;4.584;2023-04-15T01:16:45;14.15;;;4.97;;
51686;SDS011;37774;52.192;4.584;2023-04-15T01:19:31;15.68;;;5.40;;
51686;SDS011;37774;52.192;4.584;2023-04-15T01:22:19;7.43;;;4.55;;
51686;SDS011;37774;52.192;4.584;2023-04-15T01:25:09;8.20;;;3.85;;
51686;SDS011;37774;52.192;4.584;2023-04-15T01:27:58;8.88;;;5.32;;
51686;SDS011;37774;52.192;4.584;2023-04-15T01:30:43;10.48;;;5.38;;
51686;SDS011;37774;52.192;4.584;2023-04-15T01:33:28;9.77;;;4.53;;
51686;SDS011;37774;52.192;4.584;2023-04-15T01:36:14;8.63;;;5.22;;
51686;SDS011;37774;52.192;4.584;2023-04-15T01:39:00;17.25;;;5.90;;
51686;SDS011;37774;52.192;4.584;2023-04-15T01:41:45;18.65;;;5.72;;
51686;SDS011;37774;52.192;4.584;2023-04-15T01:44:33;15.48;;;5.30;;
51686;SDS011;37774;52.192;4.584;2023-04-15T01:47:18;12.52;;;4.85;;
51686;SDS011;37774;52.192;4.584;2023-04-15T01:50:04;21.90;;;5.90;;
51686;SDS011;37774;52.192;4.584;2023-04-15T01:52:50;12.05;;;5.60;;
51686;SDS011;37774;52.192;4.584;2023-04-15T01:55:35;9.90;;;5.28;;
51686;SDS011;37774;52.192;4.584;2023-04-15T01:58:20;11.45;;;4.47;;
51686;SDS011;37774;52.192;4.584;2023-04-15T02:01:07;16.85;;;5.47;;
51686;SDS011;37774;52.192;4.584;2023-04-15T02:03:54;10.32;;;5.53;;
51686;SDS011;37774;52.192;4.584;2023-04-15T02:06:39;11.30;;;5.05;;
51686;SDS011;37774;52.192;4.584;2023-04-15T02:09:25;13.18;;;5.07;;
51686;SDS011;37774;52.192;4.584;2023-04-15T02:12:10;8.05;;;4.47;;
51686;SDS011;37774;52.192;4.584;2023-04-15T02:14:56;11.90;;;4.82;;
51686;SDS011;37774;52.192;4.584;2023-04-15T02:17:43;14.30;;;5.13;;
51686;SDS011;37774;52.192;4.584;2023-04-15T02:20:33;14.00;;;5.30;;
51686;SDS011;37774;52.192;4.584;2023-04-15T02:23:19;7.40;;;4.68;;
51686;SDS011;37774;52.192;4.584;2023-04-15T02:26:04;18.33;;;4.95;;
51686;SDS011;37774;52.192;4.584;2023-04-15T02:28:50;11.50;;;5.28;;
51686;SDS011;37774;52.192;4.584;2023-04-15T02:31:36;14.38;;;5.30;;
51686;SDS011;37774;52.192;4.584;2023-04-15T02:34:24;17.58;;;6.15;;
51686;SDS011;37774;52.192;4.584;2023-04-15T02:39:56;9.18;;;4.82;;
51686;SDS011;37774;52.192;4.584;2023-04-15T02:42:41;12.20;;;5.47;;
51686;SDS011;37774;52.192;4.584;2023-04-15T02:45:28;8.18;;;4.35;;
51686;SDS011;37774;52.192;4.584;2023-04-15T02:48:13;12.45;;;4.93;;
51686;SDS011;37774;52.192;4.584;2023-04-15T02:51:11;7.43;;;4.47;;
51686;SDS011;37774;52.192;4.584;2023-04-15T02:53:58;12.65;;;4.72;;
51686;SDS011;37774;52.192;4.584;2023-04-15T02:56:43;16.67;;;4.70;;
51686;SDS011;37774;52.192;4.584;2023-04-15T02:59:29;12.35;;;4.13;;
51686;SDS011;37774;52.192;4.584;2023-04-15T03:02:14;9.68;;;4.15;;
51686;SDS011;37774;52.192;4.584;2023-04-15T03:05:00;9.68;;;4.57;;
51686;SDS011;37774;52.192;4.584;2023-04-15T03:07:47;12.38;;;5.20;;
51686;SDS011;37774;52.192;4.584;2023-04-15T03:10:32;7.68;;;4.38;;
51686;SDS011;37774;52.192;4.584;2023-04-15T03:13:17;6.97;;;3.85;;
51686;SDS011;37774;52.192;4.584;2023-04-15T03:16:03;5.78;;;4.30;;
51686;SDS011;37774;52.192;4.584;2023-04-15T03:18:49;7.40;;;3.97;;
51686;SDS011;37774;52.192;4.584;2023-04-15T03:21:35;11.15;;;4.13;;
51686;SDS011;37774;52.192;4.584;2023-04-15T03:24:21;8.52;;;4.70;;
51686;SDS011;37774;52.192;4.584;2023-04-15T03:27:07;8.20;;;4.25;;
51686;SDS011;37774;52.192;4.584;2023-04-15T03:29:53;8.23;;;4.30;;
51686;SDS011;37774;52.192;4.584;2023-04-15T03:32:39;16.13;;;5.45;;
51686;SDS011;37774;52.192;4.584;2023-04-15T03:35:25;18.00;;;5.53;;
51686;SDS011;37774;52.192;4.584;2023-04-15T03:38:10;11.07;;;4.25;;
51686;SDS011;37774;52.192;4.584;2023-04-15T03:40:57;11.30;;;4.55;;
51686;SDS011;37774;52.192;4.584;2023-04-15T03:43:42;7.97;;;4.55;;
51686;SDS011;37774;52.192;4.584;2023-04-15T03:46:28;13.93;;;4.95;;
51686;SDS011;37774;52.192;4.584;2023-04-15T03:49:13;6.47;;;4.65;;
51686;SDS011;37774;52.192;4.584;2023-04-15T03:51:58;8.27;;;4.38;;
51686;SDS011;37774;52.192;4.584;2023-04-15T03:54:44;8.57;;;4.10;;
51686;SDS011;37774;52.192;4.584;2023-04-15T03:57:31;14.75;;;4.45;;
51686;SDS011;37774;52.192;4.584;2023-04-15T04:00:20;7.95;;;3.95;;
51686;SDS011;37774;52.192;4.584;2023-04-15T04:03:07;12.85;;;4.80;;
51686;SDS011;37774;52.192;4.584;2023-04-15T04:05:52;11.63;;;4.70;;
51686;SDS011;37774;52.192;4.584;2023-04-15T04:08:38;10.13;;;5.20;;
51686;SDS011;37774;52.192;4.584;2023-04-15T04:11:23;8.55;;;4.25;;
51686;SDS011;37774;52.192;4.584;2023-04-15T04:14:10;7.65;;;4.32;;
51686;SDS011;37774;52.192;4.584;2023-04-15T04:16:55;13.07;;;5.05;;
51686;SDS011;37774;52.192;4.584;2023-04-15T04:19:41;12.80;;;4.68;;
51686;SDS011;37774;52.192;4.584;2023-04-15T04:22:26;18.52;;;5.25;;
51686;SDS011;37774;52.192;4.584;2023-04-15T04:25:12;9.00;;;4.28;;
51686;SDS011;37774;52.192;4.584;2023-04-15T04:27:57;17.85;;;6.10;;
51686;SDS011;37774;52.192;4.584;2023-04-15T04:30:44;12.40;;;5.13;;
51686;SDS011;37774;52.192;4.584;2023-04-15T04:33:30;16.00;;;5.68;;
51686;SDS011;37774;52.192;4.584;2023-04-15T04:36:15;8.40;;;4.60;;
51686;SDS011;37774;52.192;4.584;2023-04-15T04:39:01;10.98;;;4.88;;
51686;SDS011;37774;52.192;4.584;2023-04-15T04:41:46;12.07;;;4.88;;
51686;SDS011;37774;52.192;4.584;2023-04-15T04:44:32;10.00;;;5.07;;
51686;SDS011;37774;52.192;4.584;2023-04-15T04:47:19;15.05;;;5.43;;
51686;SDS011;37774;52.192;4.584;2023-04-15T04:52:50;7.75;;;4.05;;
51686;SDS011;37774;52.192;4.584;2023-04-15T04:55:36;9.40;;;5.10;;
51686;SDS011;37774;52.192;4.584;2023-04-15T04:58:21;14.05;;;4.63;;
51686;SDS011;37774;52.192;4.584;2023-04-15T05:01:07;11.32;;;5.63;;
51686;SDS011;37774;52.192;4.584;2023-04-15T05:03:54;12.10;;;4.30;;
51686;SDS011;37774;52.192;4.584;2023-04-15T05:06:39;9.45;;;4.65;;
51686;SDS011;37774;52.192;4.584;2023-04-15T05:09:25;7.65;;;4.43;;
51686;SDS011;37774;52.192;4.584;2023-04-15T05:12:11;9.90;;;4.90;;
51686;SDS011;37774;52.192;4.584;2023-04-15T05:14:57;8.32;;;4.43;;
51686;SDS011;37774;52.192;4.584;2023-04-15T05:17:42;16.40;;;5.32;;
51686;SDS011;37774;52.192;4.584;2023-04-15T05:20:29;13.13;;;5.75;;
51686;SDS011;37774;52.192;4.584;2023-04-15T05:23:14;13.15;;;5.38;;
51686;SDS011;37774;52.192;4.584;2023-04-15T05:26:00;16.63;;;5.80;;
51686;SDS011;37774;52.192;4.584;2023-04-15T05:28:46;13.00;;;5.95;;
51686;SDS011;37774;52.192;4.584;2023-04-15T05:31:32;14.98;;;5.47;;
51686;SDS011;37774;52.192;4.584;2023-04-15T05:34:17;10.10;;;5.05;;
51686;SDS011;37774;52.192;4.584;2023-04-15T05:37:04;17.95;;;6.43;;
51686;SDS011;37774;52.192;4.584;2023-04-15T05:39:49;13.65;;;7.03;;
51686;SDS011;37774;52.192;4.584;2023-04-15T05:42:35;19.60;;;6.25;;
51686;SDS011;37774;52.192;4.584;2023-04-15T05:45:20;13.45;;;6.65;;
51686;SDS011;37774;52.192;4.584;2023-04-15T05:48:05;10.77;;;6.00;;
51686;SDS011;37774;52.192;4.584;2023-04-15T05:50:51;18.08;;;6.85;;
51686;SDS011;37774;52.192;4.584;2023-04-15T05:53:38;11.50;;;6.22;;
51686;SDS011;37774;52.192;4.584;2023-04-15T05:56:24;13.38;;;6.28;;
51686;SDS011;37774;52.192;4.584;2023-04-15T05:59:10;16.30;;;6.03;;
51686;SDS011;37774;52.192;4.584;2023-04-15T06:01:55;13.85;;;6.88;;
51686;SDS011;37774;52.192;4.584;2023-04-15T06:04:41;13.90;;;6.45;;
51686;SDS011;37774;52.192;4.584;2023-04-15T06:07:26;13.35;;;6.53;;
51686;SDS011;37774;52.192;4.584;2023-04-15T06:10:13;19.13;;;6.85;;
51686;SDS011;37774;52.192;4.584;2023-04-15T06:12:58;11.10;;;6.22;;
51686;SDS011;37774;52.192;4.584;2023-04-15T06:15:44;15.25;;;6.38;;
51686;SDS011;37774;52.192;4.584;2023-04-15T06:18:29;13.48;;;5.85;;
51686;SDS011;37774;52.192;4.584;2023-04-15T06:21:15;13.55;;;7.22;;
51686;SDS011;37774;52.192;4.584;2023-04-15T06:24:00;15.40;;;6.55;;
51686;SDS011;37774;52.192;4.584;2023-04-15T06:26:48;14.35;;;6.63;;
51686;SDS011;37774;52.192;4.584;2023-04-15T06:29:33;12.63;;;6.43;;
51686;SDS011;37774;52.192;4.584;2023-04-15T06:32:18;16.88;;;6.70;;
51686;SDS011;37774;52.192;4.584;2023-04-15T06:35:04;14.43;;;7.13;;
51686;SDS011;37774;52.192;4.584;2023-04-15T06:37:50;13.10;;;6.50;;
51686;SDS011;37774;52.192;4.584;2023-04-15T06:40:35;16.80;;;6.45;;
51686;SDS011;37774;52.192;4.584;2023-04-15T06:43:22;14.07;;;6.65;;
51686;SDS011;37774;52.192;4.584;2023-04-15T06:46:07;10.00;;;5.85;;
51686;SDS011;37774;52.192;4.584;2023-04-15T06:48:53;15.18;;;6.10;;
51686;SDS011;37774;52.192;4.584;2023-04-15T06:51:39;28.10;;;6.65;;
51686;SDS011;37774;52.192;4.584;2023-04-15T06:54:24;10.43;;;6.10;;
51686;SDS011;37774;52.192;4.584;2023-04-15T06:57:10;13.05;;;6.35;;
51686;SDS011;37774;52.192;4.584;2023-04-15T06:59:57;16.23;;;6.43;;
51686;SDS011;37774;52.192;4.584;2023-04-15T07:02:42;11.57;;;6.28;;
51686;SDS011;37774;52.192;4.584;2023-04-15T07:05:28;16.10;;;5.80;;
51686;SDS011;37774;52.192;4.584;2023-04-15T07:08:13;10.77;;;5.63;;
51686;SDS011;37774;52.192;4.584;2023-04-15T07:10:58;13.95;;;7.00;;
51686;SDS011;37774;52.192;4.584;2023-04-15T07:13:44;11.90;;;4.78;;
51686;SDS011;37774;52.192;4.584;2023-04-15T07:16:30;10.52;;;5.95;;
51686;SDS011;37774;52.192;4.584;2023-04-15T07:19:16;15.38;;;6.78;;
51686;SDS011;37774;52.192;4.584;2023-04-15T07:22:01;13.88;;;6.55;;
51686;SDS011;37774;52.192;4.584;2023-04-15T07:24:47;19.67;;;7.10;;
51686;SDS011;37774;52.192;4.584;2023-04-15T07:27:32;13.27;;;7.03;;
51686;SDS011;37774;52.192;4.584;2023-04-15T07:30:18;10.88;;;5.43;;
51686;SDS011;37774;52.192;4.584;2023-04-15T07:33:05;12.98;;;6.85;;
51686;SDS011;37774;52.192;4.584;2023-04-15T07:35:50;16.88;;;5.63;;
51686;SDS011;37774;52.192;4.584;2023-04-15T07:38:36;14.80;;;6.75;;
51686;SDS011;37774;52.192;4.584;2023-04-15T07:41:22;19.83;;;6.55;;
51686;SDS011;37774;52.192;4.584;2023-04-15T07:44:08;14.40;;;6.03;;
51686;SDS011;37774;52.192;4.584;2023-04-15T07:46:53;10.40;;;5.68;;
51686;SDS011;37774;52.192;4.584;2023-04-15T07:49:41;12.50;;;5.88;;
51686;SDS011;37774;52.192;4.584;2023-04-15T07:52:27;7.13;;;4.07;;
51686;SDS011;37774;52.192;4.584;2023-04-15T07:55:12;9.88;;;5.45;;
51686;SDS011;37774;52.192;4.584;2023-04-15T07:57:59;14.45;;;3.95;;
51686;SDS011;37774;52.192;4.584;2023-04-15T08:00:44;8.60;;;4.05;;
51686;SDS011;37774;52.192;4.584;2023-04-15T08:03:30;8.75;;;4.70;;
51686;SDS011;37774;52.192;4.584;2023-04-15T08:06:17;7.45;;;3.85;;
51686;SDS011;37774;52.192;4.584;2023-04-15T08:09:03;8.15;;;4.43;;
51686;SDS011;37774;52.192;4.584;2023-04-15T08:11:48;11.00;;;4.50;;
51686;SDS011;37774;52.192;4.584;2023-04-15T08:14:33;6.75;;;3.50;;
51686;SDS011;37774;52.192;4.584;2023-04-15T08:17:19;8.98;;;4.82;;
51686;SDS011;37774;52.192;4.584;2023-04-15T08:20:05;15.65;;;4.40;;
51686;SDS011;37774;52.192;4.584;2023-04-15T08:22:52;8.85;;;4.45;;
51686;SDS011;37774;52.192;4.584;2023-04-15T08:25:38;6.63;;;3.40;;
51686;SDS011;37774;52.192;4.584;2023-04-15T08:28:23;7.40;;;3.03;;
51686;SDS011;37774;52.192;4.584;2023-04-15T08:31:09;10.68;;;4.38;;
51686;SDS011;37774;52.192;4.584;2023-04-15T08:33:55;5.47;;;3.22;;
51686;SDS011;37774;52.192;4.584;2023-04-15T08:36:41;6.60;;;2.83;;
51686;SDS011;37774;52.192;4.584;2023-04-15T08:39:28;7.40;;;3.35;;
51686;SDS011;37774;52.192;4.584;2023-04-15T08:42:15;8.07;;;3.20;;
51686;SDS011;37774;52.192;4.584;2023-04-15T08:45:03;9.20;;;4.70;;
51686;SDS011;37774;52.192;4.584;2023-04-15T08:47:49;8.27;;;3.87;;
51686;SDS011;37774;52.192;4.584;2023-04-15T08:50:39;10.38;;;4.15;;
51686;SDS011;37774;52.192;4.584;2023-04-15T08:53:25;9.20;;;4.97;;
51686;SDS011;37774;52.192;4.584;2023-04-15T08:56:12;8.40;;;4.13;;
51686;SDS011;37774;52.192;4.584;2023-04-15T08:58:59;11.70;;;4.82;;
51686;SDS011;37774;52.192;4.584;2023-04-15T09:01:44;10.98;;;3.78;;
51686;SDS011;37774;52.192;4.584;2023-04-15T09:04:30;7.85;;;3.80;;
51686;SDS011;37774;52.192;4.584;2023-04-15T09:10:03;10.52;;;4.30;;
51686;SDS011;37774;52.192;4.584;2023-04-15T09:12:50;8.93;;;4.63;;
51686;SDS011;37774;52.192;4.584;2023-04-15T09:15:37;12.00;;;3.67;;
51686;SDS011;37774;52.192;4.584;2023-04-15T09:18:26;8.32;;;3.90;;
51686;SDS011;37774;52.192;4.584;2023-04-15T09:21:14;10.50;;;3.33;;
51686;SDS011;37774;52.192;4.584;2023-04-15T09:24:00;4.97;;;3.25;;
51686;SDS011;37774;52.192;4.584;2023-04-15T09:26:46;7.90;;;2.78;;
51686;SDS011;37774;52.192;4.584;2023-04-15T09:29:33;4.70;;;2.30;;
51686;SDS011;37774;52.192;4.584;2023-04-15T09:32:20;5.28;;;2.83;;
51686;SDS011;37774;52.192;4.584;2023-04-15T09:35:10;3.88;;;2.20;;
51686;SDS011;37774;52.192;4.584;2023-04-15T09:38:00;7.13;;;2.80;;
51686;SDS011;37774;52.192;4.584;2023-04-15T09:40:48;2.42;;;1.55;;
51686;SDS011;37774;52.192;4.584;2023-04-15T09:43:37;4.57;;;1.65;;
51686;SDS011;37774;52.192;4.584;2023-04-15T09:49:27;6.15;;;1.95;;
51686;SDS011;37774;52.192;4.584;2023-04-15T09:52:13;9.05;;;3.03;;
51686;SDS011;37774;52.192;4.584;2023-04-15T09:54:58;3.15;;;1.92;;
51686;SDS011;37774;52.192;4.584;2023-04-15T09:57:44;5.57;;;1.90;;
51686;SDS011;37774;52.192;4.584;2023-04-15T10:00:31;7.85;;;2.65;;
51686;SDS011;37774;52.192;4.584;2023-04-15T10:03:19;3.83;;;2.20;;
51686;SDS011;37774;52.192;4.584;2023-04-15T10:06:06;4.03;;;2.15;;
51686;SDS011;37774;52.192;4.584;2023-04-15T10:08:53;4.32;;;2.13;;
51686;SDS011;37774;52.192;4.584;2023-04-15T10:11:39;7.93;;;2.78;;
51686;SDS011;37774;52.192;4.584;2023-04-15T10:14:25;5.00;;;2.53;;
51686;SDS011;37774;52.192;4.584;2023-04-15T10:17:16;7.50;;;2.88;;
51686;SDS011;37774;52.192;4.584;2023-04-15T10:20:04;5.63;;;2.67;;
51686;SDS011;37774;52.192;4.584;2023-04-15T10:22:51;5.15;;;2.13;;
51686;SDS011;37774;52.192;4.584;2023-04-15T10:25:37;3.42;;;2.13;;
51686;SDS011;37774;52.192;4.584;2023-04-15T10:28:22;3.00;;;1.77;;
51686;SDS011;37774;52.192;4.584;2023-04-15T10:31:09;7.50;;;2.57;;
51686;SDS011;37774;52.192;4.584;2023-04-15T10:33:56;3.33;;;2.15;;
51686;SDS011;37774;52.192;4.584;2023-04-15T10:36:47;5.65;;;2.10;;
51686;SDS011;37774;52.192;4.584;2023-04-15T10:39:40;3.33;;;2.00;;
51686;SDS011;37774;52.192;4.584;2023-04-15T10:42:32;6.40;;;2.92;;
51686;SDS011;37774;52.192;4.584;2023-04-15T10:45:19;5.50;;;2.17;;
51686;SDS011;37774;52.192;4.584;2023-04-15T10:48:06;8.02;;;2.78;;
51686;SDS011;37774;52.192;4.584;2023-04-15T10:50:55;2.72;;;2.15;;
51686;SDS011;37774;52.192;4.584;2023-04-15T10:53:42;2.58;;;1.58;;
51686;SDS011;37774;52.192;4.584;2023-04-15T10:56:28;4.85;;;1.55;;
51686;SDS011;37774;52.192;4.584;2023-04-15T10:59:14;3.80;;;1.80;;
51686;SDS011;37774;52.192;4.584;2023-04-15T11:02:01;4.40;;;1.80;;
51686;SDS011;37774;52.192;4.584;2023-04-15T11:04:54;3.63;;;1.95;;
51686;SDS011;37774;52.192;4.584;2023-04-15T11:07:48;6.38;;;1.65;;
51686;SDS011;37774;52.192;4.584;2023-04-15T11:10:51;6.00;;;2.13;;
51686;SDS011;37774;52.192;4.584;2023-04-15T11:13:46;4.93;;;1.90;;
51686;SDS011;37774;52.192;4.584;2023-04-15T11:16:40;3.25;;;1.85;;
51686;SDS011;37774;52.192;4.584;2023-04-15T11:19:34;5.03;;;2.45;;
51686;SDS011;37774;52.192;4.584;2023-04-15T11:22:20;6.53;;;2.25;;
51686;SDS011;37774;52.192;4.584;2023-04-15T11:25:06;3.72;;;2.03;;
51686;SDS011;37774;52.192;4.584;2023-04-15T11:27:53;4.43;;;2.80;;
51686;SDS011;37774;52.192;4.584;2023-04-15T11:30:41;4.90;;;2.22;;
51686;SDS011;37774;52.192;4.584;2023-04-15T11:33:27;3.95;;;1.98;;
51686;SDS011;37774;52.192;4.584;2023-04-15T11:36:12;3.58;;;2.08;;
51686;SDS011;37774;52.192;4.584;2023-04-15T11:38:58;4.93;;;1.88;;
51686;SDS011;37774;52.192;4.584;2023-04-15T11:41:46;4.68;;;2.00;;
51686;SDS011;37774;52.192;4.584;2023-04-15T11:44:33;3.45;;;1.75;;
51686;SDS011;37774;52.192;4.584;2023-04-15T11:47:22;7.85;;;2.15;;
51686;SDS011;37774;52.192;4.584;2023-04-15T11:50:14;7.03;;;1.95;;
51686;SDS011;37774;52.192;4.584;2023-04-15T11:53:07;9.88;;;1.88;;
51686;SDS011;37774;52.192;4.584;2023-04-15T11:55:53;10.05;;;1.95;;
51686;SDS011;37774;52.192;4.584;2023-04-15T11:58:39;4.90;;;1.65;;
51686;SDS011;37774;52.192;4.584;2023-04-15T12:01:34;5.18;;;2.10;;
51686;SDS011;37774;52.192;4.584;2023-04-15T12:04:22;3.80;;;1.42;;
51686;SDS011;37774;52.192;4.584;2023-04-15T12:07:07;2.50;;;1.40;;
51686;SDS011;37774;52.192;4.584;2023-04-15T12:09:53;3.50;;;1.13;;
51686;SDS011;37774;52.192;4.584;2023-04-15T12:12:39;2.67;;;1.25;;
51686;SDS011;37774;52.192;4.584;2023-04-15T12:15:25;3.55;;;1.20;;
51686;SDS011;37774;52.192;4.584;2023-04-15T12:18:17;2.50;;;0.98;;
51686;SDS011;37774;52.192;4.584;2023-04-15T12:21:08;2.28;;;0.90;;
51686;SDS011;37774;52.192;4.584;2023-04-15T12:23:55;3.80;;;1.20;;
51686;SDS011;37774;52.192;4.584;2023-04-15T12:26:45;1.70;;;1.08;;
51686;SDS011;37774;52.192;4.584;2023-04-15T12:29:32;1.42;;;1.00;;
51686;SDS011;37774;52.192;4.584;2023-04-15T12:32:18;2.88;;;1.10;;
51686;SDS011;37774;52.192;4.584;2023-04-15T12:35:06;6.47;;;1.23;;
51686;SDS011;37774;52.192;4.584;2023-04-15T12:37:52;4.70;;;1.20;;
51686;SDS011;37774;52.192;4.584;2023-04-15T12:40:39;4.57;;;1.50;;
51686;SDS011;37774;52.192;4.584;2023-04-15T12:43:24;1.52;;;0.90;;
51686;SDS011;37774;52.192;4.584;2023-04-15T12:46:10;1.75;;;1.00;;
51686;SDS011;37774;52.192;4.584;2023-04-15T12:48:55;2.13;;;1.40;;
51686;SDS011;37774;52.192;4.584;2023-04-15T12:51:42;3.40;;;0.82;;
51686;SDS011;37774;52.192;4.584;2023-04-15T12:57:15;3.47;;;1.13;;
51686;SDS011;37774;52.192;4.584;2023-04-15T13:00:01;3.13;;;0.93;;
51686;SDS011;37774;52.192;4.584;2023-04-15T13:02:49;1.67;;;1.08;;
51686;SDS011;37774;52.192;4.584;2023-04-15T13:05:35;3.05;;;0.88;;
51686;SDS011;37774;52.192;4.584;2023-04-15T13:08:23;1.77;;;0.98;;
51686;SDS011;37774;52.192;4.584;2023-04-15T13:11:09;6.50;;;1.23;;
51686;SDS011;37774;52.192;4.584;2023-04-15T13:13:55;3.78;;;1.58;;
51686;SDS011;37774;52.192;4.584;2023-04-15T13:16:40;4.53;;;1.25;;
51686;SDS011;37774;52.192;4.584;2023-04-15T13:19:26;4.18;;;1.88;;
51686;SDS011;37774;52.192;4.584;2023-04-15T13:22:11;8.18;;;1.98;;
51686;SDS011;37774;52.192;4.584;2023-04-15T13:24:59;2.95;;;1.55;;
51686;SDS011;37774;52.192;4.584;2023-04-15T13:27:45;5.95;;;1.13;;
51686;SDS011;37774;52.192;4.584;2023-04-15T13:30:31;3.85;;;1.65;;
51686;SDS011;37774;52.192;4.584;2023-04-15T13:33:16;6.90;;;1.67;;
51686;SDS011;37774;52.192;4.584;2023-04-15T13:36:02;4.15;;;1.90;;
51686;SDS011;37774;52.192;4.584;2023-04-15T13:38:47;2.42;;;1.45;;
51686;SDS011;37774;52.192;4.584;2023-04-15T13:41:34;7.13;;;1.63;;
51686;SDS011;37774;52.192;4.584;2023-04-15T13:44:19;6.57;;;1.95;;
51686;SDS011;37774;52.192;4.584;2023-04-15T13:47:05;7.50;;;1.77;;
51686;SDS011;37774;52.192;4.584;2023-04-15T13:49:50;11.55;;;2.50;;
51686;SDS011;37774;52.192;4.584;2023-04-15T13:52:39;3.47;;;1.52;;
51686;SDS011;37774;52.192;4.584;2023-04-15T13:55:24;5.07;;;2.17;;
51686;SDS011;37774;52.192;4.584;2023-04-15T13:58:11;11.38;;;1.90;;
51686;SDS011;37774;52.192;4.584;2023-04-15T14:00:57;7.82;;;1.85;;
51686;SDS011;37774;52.192;4.584;2023-04-15T14:03:42;6.07;;;1.50;;
51686;SDS011;37774;52.192;4.584;2023-04-15T14:06:28;6.55;;;1.58;;
51686;SDS011;37774;52.192;4.584;2023-04-15T14:09:15;3.67;;;1.58;;
51686;SDS011;37774;52.192;4.584;2023-04-15T14:12:00;6.82;;;2.30;;
51686;SDS011;37774;52.192;4.584;2023-04-15T14:14:47;14.82;;;1.92;;
51686;SDS011;37774;52.192;4.584;2023-04-15T14:17:33;7.18;;;1.92;;
51686;SDS011;37774;52.192;4.584;2023-04-15T14:20:18;8.27;;;2.00;;
51686;SDS011;37774;52.192;4.584;2023-04-15T14:23:04;7.43;;;1.65;;
51686;SDS011;37774;52.192;4.584;2023-04-15T14:25:49;21.85;;;2.33;;
51686;SDS011;37774;52.192;4.584;2023-04-15T14:28:35;6.43;;;1.67;;
51686;SDS011;37774;52.192;4.584;2023-04-15T14:31:22;5.18;;;1.20;;
51686;SDS011;37774;52.192;4.584;2023-04-15T14:34:08;6.80;;;1.00;;
51686;SDS011;37774;52.192;4.584;2023-04-15T14:36:53;3.10;;;0.93;;
51686;SDS011;37774;52.192;4.584;2023-04-15T14:39:39;2.55;;;0.93;;
51686;SDS011;37774;52.192;4.584;2023-04-15T14:42:24;1.02;;;0.75;;
51686;SDS011;37774;52.192;4.584;2023-04-15T14:45:10;3.75;;;0.93;;
51686;SDS011;37774;52.192;4.584;2023-04-15T14:47:57;5.20;;;1.73;;
51686;SDS011;37774;52.192;4.584;2023-04-15T14:50:43;5.38;;;1.75;;
51686;SDS011;37774;52.192;4.584;2023-04-15T14:53:28;4.05;;;0.98;;
51686;SDS011;37774;52.192;4.584;2023-04-15T14:56:14;2.90;;;1.05;;
51686;SDS011;37774;52.192;4.584;2023-04-15T14:58:59;4.43;;;1.02;;
51686;SDS011;37774;52.192;4.584;2023-04-15T15:01:45;10.63;;;1.67;;
51686;SDS011;37774;52.192;4.584;2023-04-15T15:04:32;6.97;;;1.10;;
51686;SDS011;37774;52.192;4.584;2023-04-15T15:07:18;8.35;;;1.50;;
51686;SDS011;37774;52.192;4.584;2023-04-15T15:10:05;8.70;;;1.50;;
51686;SDS011;37774;52.192;4.584;2023-04-15T15:12:51;9.77;;;2.03;;
51686;SDS011;37774;52.192;4.584;2023-04-15T15:15:37;2.70;;;1.50;;
51686;SDS011;37774;52.192;4.584;2023-04-15T15:18:22;4.97;;;1.75;;
51686;SDS011;37774;52.192;4.584;2023-04-15T15:21:09;6.20;;;1.80;;
51686;SDS011;37774;52.192;4.584;2023-04-15T15:23:55;8.07;;;1.83;;
51686;SDS011;37774;52.192;4.584;2023-04-15T15:26:40;10.57;;;1.65;;
51686;SDS011;37774;52.192;4.584;2023-04-15T15:29:26;15.02;;;1.42;;
51686;SDS011;37774;52.192;4.584;2023-04-15T15:32:11;9.77;;;1.70;;
51686;SDS011;37774;52.192;4.584;2023-04-15T15:34:57;9.32;;;2.17;;
51686;SDS011;37774;52.192;4.584;2023-04-15T15:37:44;5.55;;;1.52;;
51686;SDS011;37774;52.192;4.584;2023-04-15T15:40:35;8.00;;;1.38;;
51686;SDS011;37774;52.192;4.584;2023-04-15T15:43:21;4.15;;;1.38;;
51686;SDS011;37774;52.192;4.584;2023-04-15T15:46:06;7.13;;;1.40;;
51686;SDS011;37774;52.192;4.584;2023-04-15T15:48:52;7.25;;;1.50;;
51686;SDS011;37774;52.192;4.584;2023-04-15T15:51:38;6.03;;;1.27;;
51686;SDS011;37774;52.192;4.584;2023-04-15T15:54:25;5.38;;;1.60;;
51686;SDS011;37774;52.192;4.584;2023-04-15T15:57:11;9.63;;;1.98;;
51686;SDS011;37774;52.192;4.584;2023-04-15T15:59:57;10.05;;;1.45;;
51686;SDS011;37774;52.192;4.584;2023-04-15T16:02:42;6.57;;;0.98;;
51686;SDS011;37774;52.192;4.584;2023-04-15T16:05:28;12.00;;;2.35;;
51686;SDS011;37774;52.192;4.584;2023-04-15T16:08:14;13.40;;;1.83;;
51686;SDS011;37774;52.192;4.584;2023-04-15T16:11:01;9.77;;;2.17;;
51686;SDS011;37774;52.192;4.584;2023-04-15T16:13:46;18.60;;;1.92;;
51686;SDS011;37774;52.192;4.584;2023-04-15T16:16:32;8.23;;;1.38;;
51686;SDS011;37774;52.192;4.584;2023-04-15T16:19:18;7.05;;;1.42;;
51686;SDS011;37774;52.192;4.584;2023-04-15T16:24:50;2.95;;;0.77;;
51686;SDS011;37774;52.192;4.584;2023-04-15T16:27:38;8.82;;;1.70;;
51686;SDS011;37774;52.192;4.584;2023-04-15T16:30:25;8.40;;;1.77;;
51686;SDS011;37774;52.192;4.584;2023-04-15T16:33:11;2.65;;;0.85;;
51686;SDS011;37774;52.192;4.584;2023-04-15T16:35:57;5.93;;;1.02;;
51686;SDS011;37774;52.192;4.584;2023-04-15T16:38:42;5.70;;;0.90;;
51686;SDS011;37774;52.192;4.584;2023-04-15T16:41:31;9.13;;;1.27;;
51686;SDS011;37774;52.192;4.584;2023-04-15T16:44:18;6.47;;;0.80;;
51686;SDS011;37774;52.192;4.584;2023-04-15T16:47:03;6.97;;;1.10;;
51686;SDS011;37774;52.192;4.584;2023-04-15T16:49:49;5.18;;;0.98;;
51686;SDS011;37774;52.192;4.584;2023-04-15T16:52:34;3.75;;;0.93;;
51686;SDS011;37774;52.192;4.584;2023-04-15T16:55:20;8.48;;;1.48;;